01:17 Rennrad Innsbruck ARZ - Radweg - Voels - Hatting - Pettnau - Moetz
Ort Innsbruck Datum 26.08.2016 18:17:54
Kategorie Rennrad
Distanz 40,12 Kilometer Steigung 142,0 Meter Gefälle -96,0 Meter
Gesamt Zeit 01:18:31 Aktiv 01:17:13 Pause 00:01:18
Durchs. Tempo 31,2 km/h Tempo max. 44,3 km/h Tempo min. 18,5 km/h
Kalorien 0 Durchs. HF 121 BPM HF max. 151 BPM
Wetter 29 °C Clear Min/Max: 27,2 °C/31,0 °C; Druck: 1016,0 mbar; Rel. Feuchte: 48,1%; Taupunkt: 17,1 °C; Windgeschwindigkeit: 7,8 km/h; Niederschlag: 0,0mm
Ausrüstung Bontrager - RXL Road
Continental - Grand Prix 4000 S II 25-622
Poison - Rennrad
Shimano - HG CN-7901 Dura Ace
Notiz Innsbruck ARZ - Radweg - Voels - Hatting - Pettnau - Moetz ... trocken, noch ziemlich warm, wechselnder Wind, locker ... garmin connect
Splits
Distanz (km) Gesamt Zeit Split Zeit Split Tempo Split Tempo Höhenprofil (m)
1,00 00:02:00 00:02:00 00:02:00 29,9 -3,69
2,00 00:04:02 00:02:02 00:02:02 29,5 -3,82
3,00 00:05:57 00:01:54 00:01:55 31,4 2,18
4,00 00:07:50 00:01:53 00:01:54 31,7 1,76
5,00 00:09:43 00:01:52 00:01:52 32,0 3,62
6,00 00:11:52 00:02:09 00:02:09 27,8 10,48
7,00 00:13:41 00:01:49 00:01:49 33,0 -4,66
8,00 00:15:29 00:01:48 00:01:48 33,3 0,96
9,00 00:17:16 00:01:46 00:01:47 33,7 3,43
10,00 00:19:21 00:02:05 00:02:05 28,8 15,47
11,00 00:21:33 00:02:11 00:02:11 27,4 11,72
12,00 00:23:07 00:01:34 00:01:35 38,0 -17,42
13,00 00:24:49 00:01:41 00:01:42 35,4 -6,40
14,00 00:26:51 00:02:02 00:02:02 29,5 5,59
15,00 00:28:47 00:01:55 00:01:56 31,1 0,52
16,00 00:30:42 00:01:55 00:01:56 31,2 1,03
17,00 00:32:44 00:02:01 00:02:02 29,5 5,58
18,00 00:34:56 00:02:12 00:02:12 27,2 13,70
19,00 00:36:49 00:01:52 00:01:53 31,9 -8,13
20,00 00:38:33 00:01:44 00:01:44 34,6 -6,40
21,00 00:40:29 00:01:55 00:01:56 31,1 3,55
22,00 00:42:25 00:01:55 00:01:56 31,2 0,91
23,00 00:44:18 00:01:53 00:01:54 31,6 0,00
24,00 00:46:10 00:01:51 00:01:51 32,4 8,23
25,00 00:48:04 00:01:54 00:01:54 31,5 -3,51
26,00 00:50:00 00:01:56 00:01:56 31,0 3,76
27,00 00:51:54 00:01:54 00:01:55 31,4 0,92
28,00 00:53:49 00:01:54 00:01:54 31,5 -0,44
29,00 00:55:42 00:01:53 00:01:53 31,8 6,59
30,00 00:57:48 00:02:06 00:02:06 28,6 -1,69
31,00 00:59:34 00:01:46 00:01:46 34,0 0,22
32,00 01:01:23 00:01:48 00:01:49 33,1 2,64
33,00 01:03:08 00:01:45 00:01:45 34,2 7,49
34,00 01:04:57 00:01:48 00:01:48 33,2 1,00
35,00 01:06:46 00:01:49 00:01:49 33,0 1,70
36,00 01:08:40 00:01:54 00:01:55 31,4 -1,68
37,00 01:10:40 00:01:59 00:02:00 30,1 3,62
38,00 01:12:42 00:02:01 00:02:02 29,6 1,15
39,00 01:14:41 00:01:58 00:01:59 30,3 0,17
40,00 01:16:48 00:02:07 00:02:07 28,3 8,76
40,14 01:17:13 00:00:24 00:03:00 20,0 0,86